sensor_id;sensor_type;location;lat;lon;timestamp;P1;durP1;ratioP1;P2;durP2;ratioP2
19940;SDS011;10132;50.864;5.176;2023-04-03T00:01:28;6.37;;;5.30;;
19940;SDS011;10132;50.864;5.176;2023-04-03T00:03:30;6.80;;;5.20;;
19940;SDS011;10132;50.864;5.176;2023-04-03T00:05:32;7.00;;;4.70;;
19940;SDS011;10132;50.864;5.176;2023-04-03T00:07:34;6.87;;;5.03;;
19940;SDS011;10132;50.864;5.176;2023-04-03T00:09:36;7.87;;;5.83;;
19940;SDS011;10132;50.864;5.176;2023-04-03T00:11:38;8.60;;;5.60;;
19940;SDS011;10132;50.864;5.176;2023-04-03T00:13:40;8.80;;;5.50;;
19940;SDS011;10132;50.864;5.176;2023-04-03T00:15:43;7.17;;;4.97;;
19940;SDS011;10132;50.864;5.176;2023-04-03T00:17:46;7.30;;;5.50;;
19940;SDS011;10132;50.864;5.176;2023-04-03T00:19:48;7.73;;;5.30;;
19940;SDS011;10132;50.864;5.176;2023-04-03T00:21:50;8.20;;;4.97;;
19940;SDS011;10132;50.864;5.176;2023-04-03T00:23:55;7.43;;;5.23;;
19940;SDS011;10132;50.864;5.176;2023-04-03T00:25:57;7.37;;;4.80;;
19940;SDS011;10132;50.864;5.176;2023-04-03T00:27:59;6.33;;;5.07;;
19940;SDS011;10132;50.864;5.176;2023-04-03T00:30:01;6.57;;;5.57;;
19940;SDS011;10132;50.864;5.176;2023-04-03T00:32:03;7.67;;;5.67;;
19940;SDS011;10132;50.864;5.176;2023-04-03T00:34:07;7.50;;;5.50;;
19940;SDS011;10132;50.864;5.176;2023-04-03T00:36:09;7.23;;;5.17;;
19940;SDS011;10132;50.864;5.176;2023-04-03T00:38:13;8.90;;;5.90;;
19940;SDS011;10132;50.864;5.176;2023-04-03T00:40:15;8.37;;;5.57;;
19940;SDS011;10132;50.864;5.176;2023-04-03T00:42:17;6.73;;;5.70;;
19940;SDS011;10132;50.864;5.176;2023-04-03T00:44:20;9.73;;;5.73;;
19940;SDS011;10132;50.864;5.176;2023-04-03T00:46:24;8.10;;;5.60;;
19940;SDS011;10132;50.864;5.176;2023-04-03T00:48:27;6.00;;;5.40;;
19940;SDS011;10132;50.864;5.176;2023-04-03T00:50:33;7.40;;;5.33;;
19940;SDS011;10132;50.864;5.176;2023-04-03T00:52:37;8.60;;;6.07;;
19940;SDS011;10132;50.864;5.176;2023-04-03T00:54:40;8.67;;;6.23;;
19940;SDS011;10132;50.864;5.176;2023-04-03T00:56:43;6.30;;;5.63;;
19940;SDS011;10132;50.864;5.176;2023-04-03T00:58:47;8.93;;;5.70;;
19940;SDS011;10132;50.864;5.176;2023-04-03T01:00:54;9.77;;;5.90;;
19940;SDS011;10132;50.864;5.176;2023-04-03T01:02:59;7.70;;;4.97;;
19940;SDS011;10132;50.864;5.176;2023-04-03T01:05:01;6.63;;;5.50;;
19940;SDS011;10132;50.864;5.176;2023-04-03T01:07:05;7.87;;;5.70;;
19940;SDS011;10132;50.864;5.176;2023-04-03T01:09:09;7.30;;;5.90;;
19940;SDS011;10132;50.864;5.176;2023-04-03T01:11:11;7.80;;;6.33;;
19940;SDS011;10132;50.864;5.176;2023-04-03T01:13:21;8.40;;;5.67;;
19940;SDS011;10132;50.864;5.176;2023-04-03T01:15:26;7.90;;;5.77;;
19940;SDS011;10132;50.864;5.176;2023-04-03T01:17:31;6.70;;;5.83;;
19940;SDS011;10132;50.864;5.176;2023-04-03T01:19:35;8.37;;;5.97;;
19940;SDS011;10132;50.864;5.176;2023-04-03T01:21:59;8.90;;;6.13;;
19940;SDS011;10132;50.864;5.176;2023-04-03T01:24:17;8.80;;;6.63;;
19940;SDS011;10132;50.864;5.176;2023-04-03T01:26:32;6.83;;;6.13;;
19940;SDS011;10132;50.864;5.176;2023-04-03T01:28:35;8.93;;;6.10;;
19940;SDS011;10132;50.864;5.176;2023-04-03T01:30:39;9.13;;;6.63;;
19940;SDS011;10132;50.864;5.176;2023-04-03T01:32:46;7.40;;;6.23;;
19940;SDS011;10132;50.864;5.176;2023-04-03T01:34:49;8.93;;;6.20;;
19940;SDS011;10132;50.864;5.176;2023-04-03T01:36:51;10.70;;;6.37;;
19940;SDS011;10132;50.864;5.176;2023-04-03T01:38:54;9.87;;;6.33;;
19940;SDS011;10132;50.864;5.176;2023-04-03T01:40:56;9.47;;;6.43;;
19940;SDS011;10132;50.864;5.176;2023-04-03T01:42:58;7.83;;;6.40;;
19940;SDS011;10132;50.864;5.176;2023-04-03T01:45:00;8.70;;;6.57;;
19940;SDS011;10132;50.864;5.176;2023-04-03T01:47:02;10.17;;;6.77;;
19940;SDS011;10132;50.864;5.176;2023-04-03T01:49:08;8.40;;;7.30;;
19940;SDS011;10132;50.864;5.176;2023-04-03T01:51:10;10.77;;;7.30;;
19940;SDS011;10132;50.864;5.176;2023-04-03T01:53:12;10.00;;;6.50;;
19940;SDS011;10132;50.864;5.176;2023-04-03T01:55:14;11.80;;;6.87;;
19940;SDS011;10132;50.864;5.176;2023-04-03T01:57:16;8.57;;;6.90;;
19940;SDS011;10132;50.864;5.176;2023-04-03T01:59:18;10.17;;;7.00;;
19940;SDS011;10132;50.864;5.176;2023-04-03T02:01:20;12.57;;;6.53;;
19940;SDS011;10132;50.864;5.176;2023-04-03T02:03:23;10.93;;;6.50;;
19940;SDS011;10132;50.864;5.176;2023-04-03T02:05:26;8.20;;;6.53;;
19940;SDS011;10132;50.864;5.176;2023-04-03T02:07:28;10.57;;;6.67;;
19940;SDS011;10132;50.864;5.176;2023-04-03T02:09:30;8.83;;;6.20;;
19940;SDS011;10132;50.864;5.176;2023-04-03T02:11:32;9.67;;;6.67;;
19940;SDS011;10132;50.864;5.176;2023-04-03T02:13:34;8.43;;;6.57;;
19940;SDS011;10132;50.864;5.176;2023-04-03T02:15:37;8.27;;;6.97;;
19940;SDS011;10132;50.864;5.176;2023-04-03T02:17:39;9.23;;;6.93;;
19940;SDS011;10132;50.864;5.176;2023-04-03T02:19:41;10.57;;;7.20;;
19940;SDS011;10132;50.864;5.176;2023-04-03T02:21:44;8.77;;;7.30;;
19940;SDS011;10132;50.864;5.176;2023-04-03T02:23:46;9.60;;;6.40;;
19940;SDS011;10132;50.864;5.176;2023-04-03T02:25:48;8.83;;;7.20;;
19940;SDS011;10132;50.864;5.176;2023-04-03T02:27:50;9.80;;;7.20;;
19940;SDS011;10132;50.864;5.176;2023-04-03T02:29:52;9.37;;;7.40;;
19940;SDS011;10132;50.864;5.176;2023-04-03T02:31:54;9.90;;;6.90;;
19940;SDS011;10132;50.864;5.176;2023-04-03T02:33:56;9.60;;;7.03;;
19940;SDS011;10132;50.864;5.176;2023-04-03T02:35:58;8.37;;;6.87;;
19940;SDS011;10132;50.864;5.176;2023-04-03T02:38:02;10.03;;;6.83;;
19940;SDS011;10132;50.864;5.176;2023-04-03T02:40:04;10.20;;;7.43;;
19940;SDS011;10132;50.864;5.176;2023-04-03T02:42:08;13.00;;;7.60;;
19940;SDS011;10132;50.864;5.176;2023-04-03T02:44:10;11.20;;;7.80;;
19940;SDS011;10132;50.864;5.176;2023-04-03T02:46:13;10.10;;;7.80;;
19940;SDS011;10132;50.864;5.176;2023-04-03T02:48:15;10.27;;;7.67;;
19940;SDS011;10132;50.864;5.176;2023-04-03T02:50:17;8.27;;;6.70;;
19940;SDS011;10132;50.864;5.176;2023-04-03T02:52:19;12.53;;;7.43;;
19940;SDS011;10132;50.864;5.176;2023-04-03T02:54:23;12.83;;;7.87;;
19940;SDS011;10132;50.864;5.176;2023-04-03T02:56:28;8.70;;;6.73;;
19940;SDS011;10132;50.864;5.176;2023-04-03T02:58:30;8.50;;;7.20;;
19940;SDS011;10132;50.864;5.176;2023-04-03T03:00:32;8.80;;;7.53;;
19940;SDS011;10132;50.864;5.176;2023-04-03T03:02:34;11.20;;;7.77;;
19940;SDS011;10132;50.864;5.176;2023-04-03T03:04:37;9.53;;;7.40;;
19940;SDS011;10132;50.864;5.176;2023-04-03T03:06:38;9.30;;;7.10;;
19940;SDS011;10132;50.864;5.176;2023-04-03T03:08:41;10.83;;;7.07;;
19940;SDS011;10132;50.864;5.176;2023-04-03T03:10:45;8.33;;;7.20;;
19940;SDS011;10132;50.864;5.176;2023-04-03T03:12:47;10.87;;;7.53;;
19940;SDS011;10132;50.864;5.176;2023-04-03T03:14:49;8.07;;;6.97;;
19940;SDS011;10132;50.864;5.176;2023-04-03T03:16:51;8.27;;;7.10;;
19940;SDS011;10132;50.864;5.176;2023-04-03T03:18:53;8.63;;;7.37;;
19940;SDS011;10132;50.864;5.176;2023-04-03T03:20:56;11.53;;;7.80;;
19940;SDS011;10132;50.864;5.176;2023-04-03T03:22:59;9.33;;;8.00;;
19940;SDS011;10132;50.864;5.176;2023-04-03T03:25:01;10.17;;;7.90;;
19940;SDS011;10132;50.864;5.176;2023-04-03T03:27:05;8.80;;;7.90;;
19940;SDS011;10132;50.864;5.176;2023-04-03T03:29:07;10.13;;;7.80;;
19940;SDS011;10132;50.864;5.176;2023-04-03T03:31:11;9.77;;;7.33;;
19940;SDS011;10132;50.864;5.176;2023-04-03T03:33:15;11.83;;;8.20;;
19940;SDS011;10132;50.864;5.176;2023-04-03T03:35:17;11.67;;;8.60;;
19940;SDS011;10132;50.864;5.176;2023-04-03T03:37:19;10.20;;;8.53;;
19940;SDS011;10132;50.864;5.176;2023-04-03T03:39:21;10.37;;;7.80;;
19940;SDS011;10132;50.864;5.176;2023-04-03T03:41:23;9.07;;;7.30;;
19940;SDS011;10132;50.864;5.176;2023-04-03T03:43:27;10.97;;;8.10;;
19940;SDS011;10132;50.864;5.176;2023-04-03T03:45:29;10.03;;;7.90;;
19940;SDS011;10132;50.864;5.176;2023-04-03T03:47:31;11.57;;;7.87;;
19940;SDS011;10132;50.864;5.176;2023-04-03T03:49:33;9.17;;;7.93;;
19940;SDS011;10132;50.864;5.176;2023-04-03T03:51:37;10.00;;;7.93;;
19940;SDS011;10132;50.864;5.176;2023-04-03T03:53:39;10.00;;;8.63;;
19940;SDS011;10132;50.864;5.176;2023-04-03T03:55:41;12.97;;;9.07;;
19940;SDS011;10132;50.864;5.176;2023-04-03T03:57:44;11.87;;;9.47;;
19940;SDS011;10132;50.864;5.176;2023-04-03T03:59:47;14.70;;;9.37;;
19940;SDS011;10132;50.864;5.176;2023-04-03T04:01:50;11.87;;;9.20;;
19940;SDS011;10132;50.864;5.176;2023-04-03T04:03:52;11.63;;;9.40;;
19940;SDS011;10132;50.864;5.176;2023-04-03T04:05:54;10.50;;;9.17;;
19940;SDS011;10132;50.864;5.176;2023-04-03T04:07:57;11.33;;;9.07;;
19940;SDS011;10132;50.864;5.176;2023-04-03T04:09:59;10.50;;;8.57;;
19940;SDS011;10132;50.864;5.176;2023-04-03T04:12:01;10.50;;;8.70;;
19940;SDS011;10132;50.864;5.176;2023-04-03T04:14:03;11.67;;;9.20;;
19940;SDS011;10132;50.864;5.176;2023-04-03T04:16:10;11.07;;;8.00;;
19940;SDS011;10132;50.864;5.176;2023-04-03T04:18:12;10.90;;;9.23;;
19940;SDS011;10132;50.864;5.176;2023-04-03T04:20:14;12.27;;;9.20;;
19940;SDS011;10132;50.864;5.176;2023-04-03T04:22:16;12.47;;;8.97;;
19940;SDS011;10132;50.864;5.176;2023-04-03T04:24:18;10.60;;;8.67;;
19940;SDS011;10132;50.864;5.176;2023-04-03T04:26:20;12.03;;;9.53;;
19940;SDS011;10132;50.864;5.176;2023-04-03T04:28:22;12.70;;;8.70;;
19940;SDS011;10132;50.864;5.176;2023-04-03T04:30:26;11.47;;;9.00;;
19940;SDS011;10132;50.864;5.176;2023-04-03T04:32:30;12.40;;;9.77;;
19940;SDS011;10132;50.864;5.176;2023-04-03T04:34:32;10.70;;;9.60;;
19940;SDS011;10132;50.864;5.176;2023-04-03T04:36:34;11.43;;;9.23;;
19940;SDS011;10132;50.864;5.176;2023-04-03T04:38:36;15.17;;;9.57;;
19940;SDS011;10132;50.864;5.176;2023-04-03T04:40:38;11.17;;;9.33;;
19940;SDS011;10132;50.864;5.176;2023-04-03T04:42:41;11.60;;;9.67;;
19940;SDS011;10132;50.864;5.176;2023-04-03T04:44:43;12.97;;;8.73;;
19940;SDS011;10132;50.864;5.176;2023-04-03T04:46:45;12.33;;;9.37;;
19940;SDS011;10132;50.864;5.176;2023-04-03T04:48:49;11.37;;;8.77;;
19940;SDS011;10132;50.864;5.176;2023-04-03T04:50:51;11.03;;;8.83;;
19940;SDS011;10132;50.864;5.176;2023-04-03T04:52:55;11.33;;;8.90;;
19940;SDS011;10132;50.864;5.176;2023-04-03T04:54:57;12.43;;;9.77;;
19940;SDS011;10132;50.864;5.176;2023-04-03T04:56:59;12.10;;;9.37;;
19940;SDS011;10132;50.864;5.176;2023-04-03T04:59:01;11.70;;;9.60;;
19940;SDS011;10132;50.864;5.176;2023-04-03T05:01:04;12.40;;;9.33;;
19940;SDS011;10132;50.864;5.176;2023-04-03T05:03:08;12.93;;;9.63;;
19940;SDS011;10132;50.864;5.176;2023-04-03T05:05:11;14.83;;;9.20;;
19940;SDS011;10132;50.864;5.176;2023-04-03T05:07:13;13.07;;;9.27;;
19940;SDS011;10132;50.864;5.176;2023-04-03T05:09:15;12.17;;;9.03;;
19940;SDS011;10132;50.864;5.176;2023-04-03T05:11:17;11.33;;;9.33;;
19940;SDS011;10132;50.864;5.176;2023-04-03T05:13:20;11.60;;;9.90;;
19940;SDS011;10132;50.864;5.176;2023-04-03T05:15:22;11.87;;;9.80;;
19940;SDS011;10132;50.864;5.176;2023-04-03T05:17:24;11.20;;;10.00;;
19940;SDS011;10132;50.864;5.176;2023-04-03T05:19:26;15.03;;;9.93;;
19940;SDS011;10132;50.864;5.176;2023-04-03T05:21:30;11.37;;;9.33;;
19940;SDS011;10132;50.864;5.176;2023-04-03T05:23:32;11.13;;;9.10;;
19940;SDS011;10132;50.864;5.176;2023-04-03T05:25:34;11.37;;;9.50;;
19940;SDS011;10132;50.864;5.176;2023-04-03T05:27:38;11.00;;;9.50;;
19940;SDS011;10132;50.864;5.176;2023-04-03T05:29:40;11.30;;;9.97;;
19940;SDS011;10132;50.864;5.176;2023-04-03T05:31:43;11.47;;;9.37;;
19940;SDS011;10132;50.864;5.176;2023-04-03T05:33:45;12.63;;;9.23;;
19940;SDS011;10132;50.864;5.176;2023-04-03T05:35:47;12.97;;;9.83;;
19940;SDS011;10132;50.864;5.176;2023-04-03T05:37:51;12.27;;;9.67;;
19940;SDS011;10132;50.864;5.176;2023-04-03T05:39:53;12.37;;;10.10;;
19940;SDS011;10132;50.864;5.176;2023-04-03T05:41:54;12.50;;;9.23;;
19940;SDS011;10132;50.864;5.176;2023-04-03T05:43:56;15.67;;;11.77;;
19940;SDS011;10132;50.864;5.176;2023-04-03T05:45:58;15.47;;;11.07;;
19940;SDS011;10132;50.864;5.176;2023-04-03T05:48:00;14.07;;;10.90;;
19940;SDS011;10132;50.864;5.176;2023-04-03T05:50:03;14.17;;;10.87;;
19940;SDS011;10132;50.864;5.176;2023-04-03T05:52:05;15.63;;;11.13;;
19940;SDS011;10132;50.864;5.176;2023-04-03T05:54:11;14.67;;;10.87;;
19940;SDS011;10132;50.864;5.176;2023-04-03T05:56:18;14.73;;;11.27;;
19940;SDS011;10132;50.864;5.176;2023-04-03T05:58:20;16.37;;;11.90;;
19940;SDS011;10132;50.864;5.176;2023-04-03T06:00:22;15.13;;;11.43;;
19940;SDS011;10132;50.864;5.176;2023-04-03T06:02:24;13.67;;;11.73;;
19940;SDS011;10132;50.864;5.176;2023-04-03T06:04:31;16.23;;;11.57;;
19940;SDS011;10132;50.864;5.176;2023-04-03T06:06:43;15.70;;;12.60;;
19940;SDS011;10132;50.864;5.176;2023-04-03T06:08:46;16.97;;;12.10;;
19940;SDS011;10132;50.864;5.176;2023-04-03T06:10:49;14.97;;;12.90;;
19940;SDS011;10132;50.864;5.176;2023-04-03T06:12:52;13.50;;;11.77;;
19940;SDS011;10132;50.864;5.176;2023-04-03T06:14:54;18.47;;;13.90;;
19940;SDS011;10132;50.864;5.176;2023-04-03T06:16:57;17.07;;;13.97;;
19940;SDS011;10132;50.864;5.176;2023-04-03T06:18:59;15.93;;;13.93;;
19940;SDS011;10132;50.864;5.176;2023-04-03T06:21:01;17.87;;;13.97;;
19940;SDS011;10132;50.864;5.176;2023-04-03T06:23:04;15.57;;;12.93;;
19940;SDS011;10132;50.864;5.176;2023-04-03T06:25:07;16.63;;;14.17;;
19940;SDS011;10132;50.864;5.176;2023-04-03T06:27:12;17.90;;;13.97;;
19940;SDS011;10132;50.864;5.176;2023-04-03T06:29:14;18.23;;;13.20;;
19940;SDS011;10132;50.864;5.176;2023-04-03T06:31:16;16.47;;;14.03;;
19940;SDS011;10132;50.864;5.176;2023-04-03T06:33:18;17.30;;;12.77;;
19940;SDS011;10132;50.864;5.176;2023-04-03T06:35:20;18.90;;;13.33;;
19940;SDS011;10132;50.864;5.176;2023-04-03T06:37:23;15.03;;;12.37;;
19940;SDS011;10132;50.864;5.176;2023-04-03T06:39:28;15.07;;;12.13;;
19940;SDS011;10132;50.864;5.176;2023-04-03T06:41:30;17.57;;;12.53;;
19940;SDS011;10132;50.864;5.176;2023-04-03T06:43:34;15.87;;;12.20;;
19940;SDS011;10132;50.864;5.176;2023-04-03T06:45:36;13.23;;;11.73;;
19940;SDS011;10132;50.864;5.176;2023-04-03T06:47:38;14.80;;;12.20;;
19940;SDS011;10132;50.864;5.176;2023-04-03T06:49:40;16.30;;;11.77;;
19940;SDS011;10132;50.864;5.176;2023-04-03T06:51:42;15.83;;;12.13;;
19940;SDS011;10132;50.864;5.176;2023-04-03T06:53:44;14.30;;;11.57;;
19940;SDS011;10132;50.864;5.176;2023-04-03T06:55:47;17.37;;;11.77;;
19940;SDS011;10132;50.864;5.176;2023-04-03T06:57:49;15.97;;;11.63;;
19940;SDS011;10132;50.864;5.176;2023-04-03T06:59:52;13.23;;;10.60;;
19940;SDS011;10132;50.864;5.176;2023-04-03T07:01:54;11.50;;;10.30;;
19940;SDS011;10132;50.864;5.176;2023-04-03T07:03:56;12.13;;;10.53;;
19940;SDS011;10132;50.864;5.176;2023-04-03T07:05:58;12.63;;;10.07;;
19940;SDS011;10132;50.864;5.176;2023-04-03T07:08:00;11.43;;;10.07;;
19940;SDS011;10132;50.864;5.176;2023-04-03T07:10:02;13.90;;;8.97;;
19940;SDS011;10132;50.864;5.176;2023-04-03T07:12:05;10.97;;;8.77;;
19940;SDS011;10132;50.864;5.176;2023-04-03T07:14:07;11.27;;;7.83;;
19940;SDS011;10132;50.864;5.176;2023-04-03T07:16:10;8.20;;;7.23;;
19940;SDS011;10132;50.864;5.176;2023-04-03T07:18:12;7.87;;;6.67;;
19940;SDS011;10132;50.864;5.176;2023-04-03T07:20:15;9.13;;;6.40;;
19940;SDS011;10132;50.864;5.176;2023-04-03T07:22:17;9.17;;;6.43;;
19940;SDS011;10132;50.864;5.176;2023-04-03T07:24:19;11.17;;;6.33;;
19940;SDS011;10132;50.864;5.176;2023-04-03T07:26:21;9.53;;;6.37;;
19940;SDS011;10132;50.864;5.176;2023-04-03T07:28:24;9.97;;;6.37;;
19940;SDS011;10132;50.864;5.176;2023-04-03T07:30:26;9.50;;;6.00;;
19940;SDS011;10132;50.864;5.176;2023-04-03T07:32:29;8.07;;;5.77;;
19940;SDS011;10132;50.864;5.176;2023-04-03T07:34:31;7.23;;;6.23;;
19940;SDS011;10132;50.864;5.176;2023-04-03T07:36:33;7.67;;;5.37;;
19940;SDS011;10132;50.864;5.176;2023-04-03T07:38:36;7.50;;;5.20;;
19940;SDS011;10132;50.864;5.176;2023-04-03T07:40:38;7.27;;;5.30;;
19940;SDS011;10132;50.864;5.176;2023-04-03T07:42:40;7.57;;;5.30;;
19940;SDS011;10132;50.864;5.176;2023-04-03T07:44:42;8.93;;;4.70;;
19940;SDS011;10132;50.864;5.176;2023-04-03T07:46:44;7.87;;;5.13;;
19940;SDS011;10132;50.864;5.176;2023-04-03T07:48:48;6.57;;;4.40;;
19940;SDS011;10132;50.864;5.176;2023-04-03T07:50:50;8.30;;;4.50;;
19940;SDS011;10132;50.864;5.176;2023-04-03T07:52:52;8.40;;;5.20;;
19940;SDS011;10132;50.864;5.176;2023-04-03T07:54:54;7.57;;;5.10;;
19940;SDS011;10132;50.864;5.176;2023-04-03T07:56:56;7.50;;;4.80;;
19940;SDS011;10132;50.864;5.176;2023-04-03T07:58:58;8.20;;;4.50;;
19940;SDS011;10132;50.864;5.176;2023-04-03T08:01:00;7.20;;;4.33;;
19940;SDS011;10132;50.864;5.176;2023-04-03T08:03:02;7.27;;;4.20;;
19940;SDS011;10132;50.864;5.176;2023-04-03T08:05:06;4.87;;;4.10;;
19940;SDS011;10132;50.864;5.176;2023-04-03T08:07:09;8.60;;;4.50;;
19940;SDS011;10132;50.864;5.176;2023-04-03T08:09:11;5.97;;;4.00;;
19940;SDS011;10132;50.864;5.176;2023-04-03T08:11:13;9.10;;;4.43;;
19940;SDS011;10132;50.864;5.176;2023-04-03T08:13:15;6.10;;;4.00;;
19940;SDS011;10132;50.864;5.176;2023-04-03T08:15:17;6.77;;;4.00;;
19940;SDS011;10132;50.864;5.176;2023-04-03T08:17:19;7.97;;;3.90;;
19940;SDS011;10132;50.864;5.176;2023-04-03T08:19:21;7.83;;;3.73;;
19940;SDS011;10132;50.864;5.176;2023-04-03T08:21:25;8.90;;;3.90;;
19940;SDS011;10132;50.864;5.176;2023-04-03T08:23:27;6.97;;;3.60;;
19940;SDS011;10132;50.864;5.176;2023-04-03T08:25:29;9.67;;;3.30;;
19940;SDS011;10132;50.864;5.176;2023-04-03T08:27:31;5.80;;;3.40;;
19940;SDS011;10132;50.864;5.176;2023-04-03T08:29:33;7.57;;;3.50;;
19940;SDS011;10132;50.864;5.176;2023-04-03T08:31:37;6.23;;;3.30;;
19940;SDS011;10132;50.864;5.176;2023-04-03T08:33:39;4.97;;;3.40;;
19940;SDS011;10132;50.864;5.176;2023-04-03T08:35:42;8.10;;;3.27;;
19940;SDS011;10132;50.864;5.176;2023-04-03T08:37:45;7.30;;;3.13;;
19940;SDS011;10132;50.864;5.176;2023-04-03T08:39:47;4.60;;;2.90;;
19940;SDS011;10132;50.864;5.176;2023-04-03T08:41:50;5.80;;;3.20;;
19940;SDS011;10132;50.864;5.176;2023-04-03T08:43:55;7.00;;;2.90;;
19940;SDS011;10132;50.864;5.176;2023-04-03T08:46:03;6.73;;;2.83;;
19940;SDS011;10132;50.864;5.176;2023-04-03T08:48:09;6.60;;;2.90;;
19940;SDS011;10132;50.864;5.176;2023-04-03T08:50:17;5.93;;;2.97;;
19940;SDS011;10132;50.864;5.176;2023-04-03T08:52:22;3.50;;;2.70;;
19940;SDS011;10132;50.864;5.176;2023-04-03T08:54:32;5.23;;;2.80;;
19940;SDS011;10132;50.864;5.176;2023-04-03T08:56:36;5.97;;;2.70;;
19940;SDS011;10132;50.864;5.176;2023-04-03T08:58:41;5.90;;;3.00;;
19940;SDS011;10132;50.864;5.176;2023-04-03T09:00:48;5.43;;;3.00;;
19940;SDS011;10132;50.864;5.176;2023-04-03T09:02:54;5.30;;;2.50;;
19940;SDS011;10132;50.864;5.176;2023-04-03T09:04:57;6.03;;;2.70;;
19940;SDS011;10132;50.864;5.176;2023-04-03T09:07:00;6.00;;;3.03;;
19940;SDS011;10132;50.864;5.176;2023-04-03T09:09:11;5.50;;;2.80;;
19940;SDS011;10132;50.864;5.176;2023-04-03T09:11:19;4.00;;;2.60;;
19940;SDS011;10132;50.864;5.176;2023-04-03T09:13:29;4.70;;;2.30;;
19940;SDS011;10132;50.864;5.176;2023-04-03T09:15:38;5.17;;;2.50;;
19940;SDS011;10132;50.864;5.176;2023-04-03T09:17:41;4.80;;;2.43;;
19940;SDS011;10132;50.864;5.176;2023-04-03T09:19:54;6.20;;;2.87;;
19940;SDS011;10132;50.864;5.176;2023-04-03T09:22:00;5.13;;;2.30;;
19940;SDS011;10132;50.864;5.176;2023-04-03T09:24:12;4.50;;;2.50;;
19940;SDS011;10132;50.864;5.176;2023-04-03T09:26:18;5.40;;;2.43;;
19940;SDS011;10132;50.864;5.176;2023-04-03T09:28:24;6.50;;;2.37;;
19940;SDS011;10132;50.864;5.176;2023-04-03T09:30:26;6.40;;;2.20;;
19940;SDS011;10132;50.864;5.176;2023-04-03T09:32:29;5.87;;;2.40;;
19940;SDS011;10132;50.864;5.176;2023-04-03T09:34:35;4.33;;;2.20;;
19940;SDS011;10132;50.864;5.176;2023-04-03T09:36:38;4.13;;;2.17;;
19940;SDS011;10132;50.864;5.176;2023-04-03T09:38:42;4.57;;;2.50;;
19940;SDS011;10132;50.864;5.176;2023-04-03T09:40:46;3.73;;;2.37;;
19940;SDS011;10132;50.864;5.176;2023-04-03T09:42:53;4.80;;;2.40;;
19940;SDS011;10132;50.864;5.176;2023-04-03T09:44:56;5.27;;;2.30;;
19940;SDS011;10132;50.864;5.176;2023-04-03T09:46:59;5.00;;;2.20;;
19940;SDS011;10132;50.864;5.176;2023-04-03T09:49:02;5.27;;;2.20;;
19940;SDS011;10132;50.864;5.176;2023-04-03T09:51:04;5.37;;;2.17;;
19940;SDS011;10132;50.864;5.176;2023-04-03T09:53:25;6.10;;;2.27;;
19940;SDS011;10132;50.864;5.176;2023-04-03T09:55:29;4.73;;;2.30;;
19940;SDS011;10132;50.864;5.176;2023-04-03T09:57:32;4.00;;;2.10;;
19940;SDS011;10132;50.864;5.176;2023-04-03T09:59:36;4.27;;;2.10;;
19940;SDS011;10132;50.864;5.176;2023-04-03T10:01:42;7.53;;;2.23;;
19940;SDS011;10132;50.864;5.176;2023-04-03T10:04:05;4.30;;;2.63;;
19940;SDS011;10132;50.864;5.176;2023-04-03T10:06:21;3.60;;;2.00;;
19940;SDS011;10132;50.864;5.176;2023-04-03T10:08:26;7.43;;;2.07;;
19940;SDS011;10132;50.864;5.176;2023-04-03T10:10:30;5.27;;;2.40;;
19940;SDS011;10132;50.864;5.176;2023-04-03T10:12:32;5.10;;;2.00;;
19940;SDS011;10132;50.864;5.176;2023-04-03T10:14:36;6.53;;;1.90;;
19940;SDS011;10132;50.864;5.176;2023-04-03T10:16:41;5.40;;;2.00;;
19940;SDS011;10132;50.864;5.176;2023-04-03T10:18:51;4.40;;;1.97;;
19940;SDS011;10132;50.864;5.176;2023-04-03T10:21:08;4.20;;;2.30;;
19940;SDS011;10132;50.864;5.176;2023-04-03T10:23:17;5.30;;;1.70;;
19940;SDS011;10132;50.864;5.176;2023-04-03T10:25:24;4.03;;;1.83;;
19940;SDS011;10132;50.864;5.176;2023-04-03T10:27:38;5.50;;;2.10;;
19940;SDS011;10132;50.864;5.176;2023-04-03T10:29:48;4.30;;;2.27;;
19940;SDS011;10132;50.864;5.176;2023-04-03T10:31:58;4.47;;;1.87;;
19940;SDS011;10132;50.864;5.176;2023-04-03T10:34:10;4.83;;;1.73;;
19940;SDS011;10132;50.864;5.176;2023-04-03T10:36:25;6.00;;;2.70;;
19940;SDS011;10132;50.864;5.176;2023-04-03T10:38:38;4.17;;;1.93;;
19940;SDS011;10132;50.864;5.176;2023-04-03T10:40:49;6.27;;;2.30;;
19940;SDS011;10132;50.864;5.176;2023-04-03T10:42:56;3.80;;;2.30;;
19940;SDS011;10132;50.864;5.176;2023-04-03T10:45:18;4.73;;;1.90;;
19940;SDS011;10132;50.864;5.176;2023-04-03T10:47:24;4.80;;;1.80;;
19940;SDS011;10132;50.864;5.176;2023-04-03T10:49:36;5.30;;;2.03;;
19940;SDS011;10132;50.864;5.176;2023-04-03T10:51:48;3.90;;;1.67;;
19940;SDS011;10132;50.864;5.176;2023-04-03T10:53:56;3.17;;;1.80;;
19940;SDS011;10132;50.864;5.176;2023-04-03T10:56:02;3.37;;;1.53;;
19940;SDS011;10132;50.864;5.176;2023-04-03T10:58:13;3.07;;;1.20;;
19940;SDS011;10132;50.864;5.176;2023-04-03T11:00:25;2.00;;;1.07;;
19940;SDS011;10132;50.864;5.176;2023-04-03T11:02:36;2.73;;;1.20;;
19940;SDS011;10132;50.864;5.176;2023-04-03T11:04:44;3.23;;;1.40;;
19940;SDS011;10132;50.864;5.176;2023-04-03T11:06:49;2.17;;;1.10;;
19940;SDS011;10132;50.864;5.176;2023-04-03T11:08:57;2.37;;;1.30;;
19940;SDS011;10132;50.864;5.176;2023-04-03T11:11:04;3.67;;;1.40;;
19940;SDS011;10132;50.864;5.176;2023-04-03T11:13:11;4.73;;;1.00;;
19940;SDS011;10132;50.864;5.176;2023-04-03T11:15:16;4.93;;;1.50;;
19940;SDS011;10132;50.864;5.176;2023-04-03T11:17:26;1.87;;;1.00;;
19940;SDS011;10132;50.864;5.176;2023-04-03T11:19:34;1.80;;;1.00;;
19940;SDS011;10132;50.864;5.176;2023-04-03T11:21:40;3.33;;;1.03;;
19940;SDS011;10132;50.864;5.176;2023-04-03T11:23:47;1.70;;;1.07;;
19940;SDS011;10132;50.864;5.176;2023-04-03T11:25:51;2.23;;;1.03;;
19940;SDS011;10132;50.864;5.176;2023-04-03T11:27:55;1.80;;;1.10;;
19940;SDS011;10132;50.864;5.176;2023-04-03T11:29:58;1.67;;;0.90;;
19940;SDS011;10132;50.864;5.176;2023-04-03T11:32:04;3.80;;;1.20;;
19940;SDS011;10132;50.864;5.176;2023-04-03T11:34:23;3.10;;;1.13;;
19940;SDS011;10132;50.864;5.176;2023-04-03T11:36:37;2.03;;;1.07;;
19940;SDS011;10132;50.864;5.176;2023-04-03T11:38:43;3.27;;;1.00;;
19940;SDS011;10132;50.864;5.176;2023-04-03T11:40:48;1.93;;;1.00;;
19940;SDS011;10132;50.864;5.176;2023-04-03T11:42:52;1.43;;;1.00;;
19940;SDS011;10132;50.864;5.176;2023-04-03T11:45:15;2.47;;;1.20;;
19940;SDS011;10132;50.864;5.176;2023-04-03T11:49:58;1.90;;;1.10;;
19940;SDS011;10132;50.864;5.176;2023-04-03T11:52:01;1.87;;;1.10;;
19940;SDS011;10132;50.864;5.176;2023-04-03T11:56:43;1.80;;;1.00;;
19940;SDS011;10132;50.864;5.176;2023-04-03T11:58:46;2.13;;;1.20;;
19940;SDS011;10132;50.864;5.176;2023-04-03T12:08:59;2.27;;;1.27;;
19940;SDS011;10132;50.864;5.176;2023-04-03T12:11:14;2.87;;;1.33;;
19940;SDS011;10132;50.864;5.176;2023-04-03T12:13:17;4.50;;;1.83;;
19940;SDS011;10132;50.864;5.176;2023-04-03T12:15:21;3.00;;;1.40;;
19940;SDS011;10132;50.864;5.176;2023-04-03T12:17:42;3.00;;;1.23;;
19940;SDS011;10132;50.864;5.176;2023-04-03T12:19:45;3.60;;;1.40;;
19940;SDS011;10132;50.864;5.176;2023-04-03T12:22:04;2.30;;;1.37;;
19940;SDS011;10132;50.864;5.176;2023-04-03T12:24:24;3.70;;;1.60;;
19940;SDS011;10132;50.864;5.176;2023-04-03T12:26:28;4.33;;;1.87;;
19940;SDS011;10132;50.864;5.176;2023-04-03T12:28:38;3.60;;;1.60;;
19940;SDS011;10132;50.864;5.176;2023-04-03T12:30:40;2.47;;;1.37;;
19940;SDS011;10132;50.864;5.176;2023-04-03T12:32:48;2.93;;;1.40;;
19940;SDS011;10132;50.864;5.176;2023-04-03T12:35:09;3.33;;;1.67;;
19940;SDS011;10132;50.864;5.176;2023-04-03T12:37:21;3.73;;;1.37;;